Terminal Aerodrome Forecast
Issued by NWS Dallas/Fort Worth, TX

Home | Current Version | Previous Version | Text Only | Print | Product List | Glossary On
Versions: 1 2 3 4 5 6 7 8 9 10 11 12 13 14 15 16 17 18 19 20 21 22 23 24 25
435
FTUS44 KFWD 010303 AAA
TAFACT
TAF AMD
KACT 010303Z 0103/0124 09006KT P6SM -RA BKN025 OVC060
      TEMPO 0103/0107 SCT025 BKN060
     FM010700 13005KT 4SM BR BKN010
     FM011100 13005KT 4SM BR VCSH BKN008
     FM011500 12007KT P6SM BKN020
     FM012100 13010KT P6SM VCTS BKN040CB BKN150=

USA.gov is the U.S. government's official web portal to all federal, state and local government web resources and services.